sensor_id;sensor_type;location;lat;lon;timestamp;P1;durP1;ratioP1;P2;durP2;ratioP2
51778;SDS011;37843;53.266;6.746;2022-09-09T00:04:43;9.43;;;6.53;;
51778;SDS011;37843;53.266;6.746;2022-09-09T00:06:54;7.78;;;6.53;;
51778;SDS011;37843;53.266;6.746;2022-09-09T00:09:22;10.07;;;7.05;;
51778;SDS011;37843;53.266;6.746;2022-09-09T00:11:52;11.93;;;8.13;;
51778;SDS011;37843;53.266;6.746;2022-09-09T00:16:47;9.75;;;7.38;;
51778;SDS011;37843;53.266;6.746;2022-09-09T00:19:18;10.02;;;7.18;;
51778;SDS011;37843;53.266;6.746;2022-09-09T00:24:26;10.43;;;7.13;;
51778;SDS011;37843;53.266;6.746;2022-09-09T00:26:56;11.77;;;7.32;;
51778;SDS011;37843;53.266;6.746;2022-09-09T00:31:49;11.05;;;7.05;;
51778;SDS011;37843;53.266;6.746;2022-09-09T00:34:21;10.98;;;7.20;;
51778;SDS011;37843;53.266;6.746;2022-09-09T00:36:49;12.15;;;7.63;;
51778;SDS011;37843;53.266;6.746;2022-09-09T00:39:40;9.00;;;7.18;;
51778;SDS011;37843;53.266;6.746;2022-09-09T00:44:33;12.70;;;6.90;;
51778;SDS011;37843;53.266;6.746;2022-09-09T00:50:01;11.23;;;7.30;;
51778;SDS011;37843;53.266;6.746;2022-09-09T00:55:07;8.23;;;7.07;;
51778;SDS011;37843;53.266;6.746;2022-09-09T00:57:38;11.80;;;7.20;;
51778;SDS011;37843;53.266;6.746;2022-09-09T01:03:01;8.23;;;6.25;;
51778;SDS011;37843;53.266;6.746;2022-09-09T01:05:53;9.18;;;6.07;;
51778;SDS011;37843;53.266;6.746;2022-09-09T01:10:50;8.35;;;5.78;;
51778;SDS011;37843;53.266;6.746;2022-09-09T01:13:23;11.10;;;6.25;;
51778;SDS011;37843;53.266;6.746;2022-09-09T01:15:50;10.35;;;6.93;;
51778;SDS011;37843;53.266;6.746;2022-09-09T01:18:19;12.88;;;6.78;;
51778;SDS011;37843;53.266;6.746;2022-09-09T01:24:15;7.93;;;5.68;;
51778;SDS011;37843;53.266;6.746;2022-09-09T01:26:22;11.00;;;5.97;;
51778;SDS011;37843;53.266;6.746;2022-09-09T01:28:50;9.20;;;5.95;;
51778;SDS011;37843;53.266;6.746;2022-09-09T01:31:22;7.40;;;6.43;;
51778;SDS011;37843;53.266;6.746;2022-09-09T01:33:49;8.90;;;6.32;;
51778;SDS011;37843;53.266;6.746;2022-09-09T01:36:26;11.25;;;6.85;;
51778;SDS011;37843;53.266;6.746;2022-09-09T01:38:55;8.63;;;6.53;;
51778;SDS011;37843;53.266;6.746;2022-09-09T01:41:21;9.98;;;6.38;;
51778;SDS011;37843;53.266;6.746;2022-09-09T01:43:48;7.85;;;5.85;;
51778;SDS011;37843;53.266;6.746;2022-09-09T01:46:14;7.70;;;5.85;;
51778;SDS011;37843;53.266;6.746;2022-09-09T01:48:41;9.68;;;6.03;;
51778;SDS011;37843;53.266;6.746;2022-09-09T01:51:08;8.55;;;6.47;;
51778;SDS011;37843;53.266;6.746;2022-09-09T01:53:35;8.18;;;6.43;;
51778;SDS011;37843;53.266;6.746;2022-09-09T01:56:07;8.50;;;6.45;;
51778;SDS011;37843;53.266;6.746;2022-09-09T01:58:50;11.07;;;6.23;;
51778;SDS011;37843;53.266;6.746;2022-09-09T02:01:33;8.55;;;5.60;;
51778;SDS011;37843;53.266;6.746;2022-09-09T02:04:05;9.38;;;6.80;;
51778;SDS011;37843;53.266;6.746;2022-09-09T02:06:34;7.28;;;6.05;;
51778;SDS011;37843;53.266;6.746;2022-09-09T02:09:02;13.43;;;6.88;;
51778;SDS011;37843;53.266;6.746;2022-09-09T02:11:30;9.25;;;7.03;;
51778;SDS011;37843;53.266;6.746;2022-09-09T02:13:57;11.07;;;7.10;;
51778;SDS011;37843;53.266;6.746;2022-09-09T02:16:40;11.73;;;7.32;;
51778;SDS011;37843;53.266;6.746;2022-09-09T02:19:25;9.35;;;6.68;;
51778;SDS011;37843;53.266;6.746;2022-09-09T02:21:52;14.15;;;7.18;;
51778;SDS011;37843;53.266;6.746;2022-09-09T02:24:19;15.88;;;7.82;;
51778;SDS011;37843;53.266;6.746;2022-09-09T02:26:46;10.02;;;6.53;;
51778;SDS011;37843;53.266;6.746;2022-09-09T02:29:21;11.63;;;7.15;;
51778;SDS011;37843;53.266;6.746;2022-09-09T02:31:49;12.57;;;7.07;;
51778;SDS011;37843;53.266;6.746;2022-09-09T02:34:15;8.18;;;6.35;;
51778;SDS011;37843;53.266;6.746;2022-09-09T02:36:43;9.07;;;7.53;;
51778;SDS011;37843;53.266;6.746;2022-09-09T02:39:11;9.15;;;6.78;;
51778;SDS011;37843;53.266;6.746;2022-09-09T02:41:39;11.77;;;6.93;;
51778;SDS011;37843;53.266;6.746;2022-09-09T02:44:09;11.00;;;7.00;;
51778;SDS011;37843;53.266;6.746;2022-09-09T02:49:27;10.82;;;6.70;;
51778;SDS011;37843;53.266;6.746;2022-09-09T02:52:04;10.27;;;6.40;;
51778;SDS011;37843;53.266;6.746;2022-09-09T02:54:32;8.38;;;6.35;;
51778;SDS011;37843;53.266;6.746;2022-09-09T02:57:03;9.15;;;6.93;;
51778;SDS011;37843;53.266;6.746;2022-09-09T02:59:31;11.15;;;7.68;;
51778;SDS011;37843;53.266;6.746;2022-09-09T03:01:58;10.50;;;7.03;;
51778;SDS011;37843;53.266;6.746;2022-09-09T03:04:24;9.65;;;7.28;;
51778;SDS011;37843;53.266;6.746;2022-09-09T03:06:50;12.45;;;7.32;;
51778;SDS011;37843;53.266;6.746;2022-09-09T03:09:16;9.63;;;6.63;;
51778;SDS011;37843;53.266;6.746;2022-09-09T03:11:43;15.05;;;6.95;;
51778;SDS011;37843;53.266;6.746;2022-09-09T03:14:09;12.63;;;7.07;;
51778;SDS011;37843;53.266;6.746;2022-09-09T03:16:36;8.80;;;6.53;;
51778;SDS011;37843;53.266;6.746;2022-09-09T03:19:04;12.32;;;7.80;;
51778;SDS011;37843;53.266;6.746;2022-09-09T03:21:31;9.13;;;6.80;;
51778;SDS011;37843;53.266;6.746;2022-09-09T03:23:57;7.28;;;5.97;;
51778;SDS011;37843;53.266;6.746;2022-09-09T03:26:23;9.68;;;6.28;;
51778;SDS011;37843;53.266;6.746;2022-09-09T03:28:49;11.23;;;6.63;;
51778;SDS011;37843;53.266;6.746;2022-09-09T03:31:16;8.93;;;6.32;;
51778;SDS011;37843;53.266;6.746;2022-09-09T03:33:44;7.82;;;6.72;;
51778;SDS011;37843;53.266;6.746;2022-09-09T03:36:10;10.15;;;6.32;;
51778;SDS011;37843;53.266;6.746;2022-09-09T03:38:36;8.45;;;6.15;;
51778;SDS011;37843;53.266;6.746;2022-09-09T03:41:02;9.63;;;6.05;;
51778;SDS011;37843;53.266;6.746;2022-09-09T03:43:31;8.57;;;6.55;;
51778;SDS011;37843;53.266;6.746;2022-09-09T03:45:57;9.20;;;6.57;;
51778;SDS011;37843;53.266;6.746;2022-09-09T03:48:23;6.45;;;5.20;;
51778;SDS011;37843;53.266;6.746;2022-09-09T03:50:52;6.72;;;5.30;;
51778;SDS011;37843;53.266;6.746;2022-09-09T03:53:19;6.47;;;4.80;;
51778;SDS011;37843;53.266;6.746;2022-09-09T03:55:47;7.40;;;5.22;;
51778;SDS011;37843;53.266;6.746;2022-09-09T03:58:14;7.88;;;4.80;;
51778;SDS011;37843;53.266;6.746;2022-09-09T04:00:40;8.23;;;5.40;;
51778;SDS011;37843;53.266;6.746;2022-09-09T04:03:09;8.52;;;4.70;;
51778;SDS011;37843;53.266;6.746;2022-09-09T04:05:35;8.25;;;4.57;;
51778;SDS011;37843;53.266;6.746;2022-09-09T04:08:07;4.03;;;3.53;;
51778;SDS011;37843;53.266;6.746;2022-09-09T04:10:33;7.10;;;3.65;;
51778;SDS011;37843;53.266;6.746;2022-09-09T04:13:02;8.55;;;3.97;;
51778;SDS011;37843;53.266;6.746;2022-09-09T04:15:29;5.53;;;4.10;;
51778;SDS011;37843;53.266;6.746;2022-09-09T04:17:55;5.88;;;4.05;;
51778;SDS011;37843;53.266;6.746;2022-09-09T04:20:21;6.50;;;3.10;;
51778;SDS011;37843;53.266;6.746;2022-09-09T04:22:48;5.10;;;3.22;;
51778;SDS011;37843;53.266;6.746;2022-09-09T04:25:14;7.40;;;2.90;;
51778;SDS011;37843;53.266;6.746;2022-09-09T04:27:41;6.88;;;2.55;;
51778;SDS011;37843;53.266;6.746;2022-09-09T04:30:08;5.25;;;2.60;;
51778;SDS011;37843;53.266;6.746;2022-09-09T04:32:34;4.88;;;2.50;;
51778;SDS011;37843;53.266;6.746;2022-09-09T04:35:02;6.00;;;2.65;;
51778;SDS011;37843;53.266;6.746;2022-09-09T04:37:28;4.13;;;3.15;;
51778;SDS011;37843;53.266;6.746;2022-09-09T04:39:54;4.75;;;2.63;;
51778;SDS011;37843;53.266;6.746;2022-09-09T04:42:20;10.63;;;2.40;;
51778;SDS011;37843;53.266;6.746;2022-09-09T04:44:47;5.63;;;2.30;;
51778;SDS011;37843;53.266;6.746;2022-09-09T04:47:13;7.82;;;2.55;;
51778;SDS011;37843;53.266;6.746;2022-09-09T04:49:39;3.00;;;2.40;;
51778;SDS011;37843;53.266;6.746;2022-09-09T04:52:06;7.20;;;2.60;;
51778;SDS011;37843;53.266;6.746;2022-09-09T04:54:32;5.07;;;2.80;;
51778;SDS011;37843;53.266;6.746;2022-09-09T04:56:58;7.32;;;3.28;;
51778;SDS011;37843;53.266;6.746;2022-09-09T04:59:24;5.65;;;3.33;;
51778;SDS011;37843;53.266;6.746;2022-09-09T05:01:50;4.43;;;3.17;;
51778;SDS011;37843;53.266;6.746;2022-09-09T05:04:16;9.02;;;4.13;;
51778;SDS011;37843;53.266;6.746;2022-09-09T05:06:44;5.72;;;3.35;;
51778;SDS011;37843;53.266;6.746;2022-09-09T05:09:10;4.88;;;3.80;;
51778;SDS011;37843;53.266;6.746;2022-09-09T05:11:37;7.55;;;4.10;;
51778;SDS011;37843;53.266;6.746;2022-09-09T05:14:03;5.50;;;4.18;;
51778;SDS011;37843;53.266;6.746;2022-09-09T05:16:30;7.63;;;4.63;;
51778;SDS011;37843;53.266;6.746;2022-09-09T05:18:56;9.98;;;4.30;;
51778;SDS011;37843;53.266;6.746;2022-09-09T05:21:23;5.45;;;4.07;;
51778;SDS011;37843;53.266;6.746;2022-09-09T05:23:53;7.43;;;4.45;;
51778;SDS011;37843;53.266;6.746;2022-09-09T05:26:20;7.13;;;4.72;;
51778;SDS011;37843;53.266;6.746;2022-09-09T05:28:46;6.63;;;4.68;;
51778;SDS011;37843;53.266;6.746;2022-09-09T05:31:13;6.35;;;4.88;;
51778;SDS011;37843;53.266;6.746;2022-09-09T05:33:40;10.82;;;5.50;;
51778;SDS011;37843;53.266;6.746;2022-09-09T05:36:12;6.53;;;4.97;;
51778;SDS011;37843;53.266;6.746;2022-09-09T05:38:38;6.03;;;4.30;;
51778;SDS011;37843;53.266;6.746;2022-09-09T05:41:05;5.68;;;4.57;;
51778;SDS011;37843;53.266;6.746;2022-09-09T05:43:32;6.82;;;4.70;;
51778;SDS011;37843;53.266;6.746;2022-09-09T05:46:02;9.00;;;5.45;;
51778;SDS011;37843;53.266;6.746;2022-09-09T05:48:30;8.18;;;5.07;;
51778;SDS011;37843;53.266;6.746;2022-09-09T05:50:57;7.65;;;5.43;;
51778;SDS011;37843;53.266;6.746;2022-09-09T05:53:23;8.18;;;5.10;;
51778;SDS011;37843;53.266;6.746;2022-09-09T05:55:49;8.25;;;5.43;;
51778;SDS011;37843;53.266;6.746;2022-09-09T05:58:15;9.07;;;5.28;;
51778;SDS011;37843;53.266;6.746;2022-09-09T06:00:42;10.02;;;5.45;;
51778;SDS011;37843;53.266;6.746;2022-09-09T06:03:11;8.32;;;6.57;;
51778;SDS011;37843;53.266;6.746;2022-09-09T06:05:37;11.30;;;6.65;;
51778;SDS011;37843;53.266;6.746;2022-09-09T06:08:04;11.18;;;6.05;;
51778;SDS011;37843;53.266;6.746;2022-09-09T06:10:30;8.25;;;6.25;;
51778;SDS011;37843;53.266;6.746;2022-09-09T06:12:56;8.15;;;5.90;;
51778;SDS011;37843;53.266;6.746;2022-09-09T06:15:22;8.40;;;6.40;;
51778;SDS011;37843;53.266;6.746;2022-09-09T06:17:53;9.90;;;6.57;;
51778;SDS011;37843;53.266;6.746;2022-09-09T06:20:20;6.60;;;5.82;;
51778;SDS011;37843;53.266;6.746;2022-09-09T06:22:47;9.65;;;6.32;;
51778;SDS011;37843;53.266;6.746;2022-09-09T06:25:13;7.28;;;5.78;;
51778;SDS011;37843;53.266;6.746;2022-09-09T06:27:40;12.20;;;6.07;;
51778;SDS011;37843;53.266;6.746;2022-09-09T06:30:07;8.57;;;6.40;;
51778;SDS011;37843;53.266;6.746;2022-09-09T06:32:34;9.07;;;5.70;;
51778;SDS011;37843;53.266;6.746;2022-09-09T06:35:01;8.45;;;5.63;;
51778;SDS011;37843;53.266;6.746;2022-09-09T06:37:27;6.18;;;5.30;;
51778;SDS011;37843;53.266;6.746;2022-09-09T06:39:54;9.32;;;6.03;;
51778;SDS011;37843;53.266;6.746;2022-09-09T06:42:20;7.90;;;5.53;;
51778;SDS011;37843;53.266;6.746;2022-09-09T06:44:46;8.35;;;5.38;;
51778;SDS011;37843;53.266;6.746;2022-09-09T06:47:13;11.57;;;5.70;;
51778;SDS011;37843;53.266;6.746;2022-09-09T06:49:39;7.35;;;5.45;;
51778;SDS011;37843;53.266;6.746;2022-09-09T06:52:05;10.40;;;5.68;;
51778;SDS011;37843;53.266;6.746;2022-09-09T06:54:31;7.70;;;5.80;;
51778;SDS011;37843;53.266;6.746;2022-09-09T06:56:57;8.60;;;5.72;;
51778;SDS011;37843;53.266;6.746;2022-09-09T06:59:25;8.05;;;5.15;;
51778;SDS011;37843;53.266;6.746;2022-09-09T07:01:52;9.25;;;5.78;;
51778;SDS011;37843;53.266;6.746;2022-09-09T07:04:19;8.45;;;5.70;;
51778;SDS011;37843;53.266;6.746;2022-09-09T07:06:46;8.23;;;5.95;;
51778;SDS011;37843;53.266;6.746;2022-09-09T07:09:13;8.65;;;5.50;;
51778;SDS011;37843;53.266;6.746;2022-09-09T07:11:41;7.45;;;5.65;;
51778;SDS011;37843;53.266;6.746;2022-09-09T07:14:07;8.05;;;5.75;;
51778;SDS011;37843;53.266;6.746;2022-09-09T07:16:34;6.38;;;5.57;;
51778;SDS011;37843;53.266;6.746;2022-09-09T07:19:02;10.40;;;6.13;;
51778;SDS011;37843;53.266;6.746;2022-09-09T07:21:29;8.52;;;5.57;;
51778;SDS011;37843;53.266;6.746;2022-09-09T07:23:56;8.82;;;5.43;;
51778;SDS011;37843;53.266;6.746;2022-09-09T07:26:24;10.05;;;5.65;;
51778;SDS011;37843;53.266;6.746;2022-09-09T07:28:50;8.95;;;5.43;;
51778;SDS011;37843;53.266;6.746;2022-09-09T07:31:20;9.05;;;5.78;;
51778;SDS011;37843;53.266;6.746;2022-09-09T07:33:51;8.57;;;5.28;;
51778;SDS011;37843;53.266;6.746;2022-09-09T07:36:18;6.70;;;5.30;;
51778;SDS011;37843;53.266;6.746;2022-09-09T07:38:49;9.07;;;5.68;;
51778;SDS011;37843;53.266;6.746;2022-09-09T07:41:23;10.65;;;5.82;;
51778;SDS011;37843;53.266;6.746;2022-09-09T07:43:50;7.93;;;5.32;;
51778;SDS011;37843;53.266;6.746;2022-09-09T07:46:17;9.60;;;5.63;;
51778;SDS011;37843;53.266;6.746;2022-09-09T07:48:51;11.55;;;6.03;;
51778;SDS011;37843;53.266;6.746;2022-09-09T07:51:27;8.30;;;6.38;;
51778;SDS011;37843;53.266;6.746;2022-09-09T07:53:58;9.15;;;6.43;;
51778;SDS011;37843;53.266;6.746;2022-09-09T07:56:25;8.13;;;5.85;;
51778;SDS011;37843;53.266;6.746;2022-09-09T07:58:52;6.53;;;5.53;;
51778;SDS011;37843;53.266;6.746;2022-09-09T08:03:45;6.78;;;5.75;;
51778;SDS011;37843;53.266;6.746;2022-09-09T08:06:11;7.85;;;6.18;;
51778;SDS011;37843;53.266;6.746;2022-09-09T08:08:39;9.32;;;7.03;;
51778;SDS011;37843;53.266;6.746;2022-09-09T08:11:12;8.18;;;5.53;;
51778;SDS011;37843;53.266;6.746;2022-09-09T08:13:40;7.60;;;5.25;;
51778;SDS011;37843;53.266;6.746;2022-09-09T08:16:08;8.38;;;5.32;;
51778;SDS011;37843;53.266;6.746;2022-09-09T08:18:34;5.82;;;5.22;;
51778;SDS011;37843;53.266;6.746;2022-09-09T08:21:04;7.07;;;5.53;;
51778;SDS011;37843;53.266;6.746;2022-09-09T08:23:31;6.80;;;5.88;;
51778;SDS011;37843;53.266;6.746;2022-09-09T08:26:09;10.02;;;5.15;;
51778;SDS011;37843;53.266;6.746;2022-09-09T08:28:36;6.25;;;5.47;;
51778;SDS011;37843;53.266;6.746;2022-09-09T08:31:16;7.97;;;4.95;;
51778;SDS011;37843;53.266;6.746;2022-09-09T08:33:43;5.82;;;4.72;;
51778;SDS011;37843;53.266;6.746;2022-09-09T08:36:12;8.38;;;5.05;;
51778;SDS011;37843;53.266;6.746;2022-09-09T08:38:40;7.43;;;5.10;;
51778;SDS011;37843;53.266;6.746;2022-09-09T08:43:46;5.25;;;3.92;;
51778;SDS011;37843;53.266;6.746;2022-09-09T08:46:16;6.80;;;4.35;;
51778;SDS011;37843;53.266;6.746;2022-09-09T08:49:08;6.20;;;4.38;;
51778;SDS011;37843;53.266;6.746;2022-09-09T08:51:31;5.72;;;4.18;;
51778;SDS011;37843;53.266;6.746;2022-09-09T08:53:59;7.93;;;4.75;;
51778;SDS011;37843;53.266;6.746;2022-09-09T08:56:26;5.95;;;4.07;;
51778;SDS011;37843;53.266;6.746;2022-09-09T08:58:54;7.55;;;4.57;;
51778;SDS011;37843;53.266;6.746;2022-09-09T09:06:58;5.20;;;4.13;;
51778;SDS011;37843;53.266;6.746;2022-09-09T09:09:30;7.50;;;4.40;;
51778;SDS011;37843;53.266;6.746;2022-09-09T09:12:00;6.60;;;4.55;;
51778;SDS011;37843;53.266;6.746;2022-09-09T09:14:31;6.25;;;4.18;;
51778;SDS011;37843;53.266;6.746;2022-09-09T09:17:00;5.65;;;4.20;;
51778;SDS011;37843;53.266;6.746;2022-09-09T09:19:28;5.50;;;4.88;;
51778;SDS011;37843;53.266;6.746;2022-09-09T09:22:04;7.28;;;5.28;;
51778;SDS011;37843;53.266;6.746;2022-09-09T09:24:54;5.35;;;4.25;;
51778;SDS011;37843;53.266;6.746;2022-09-09T09:27:33;9.45;;;5.28;;
51778;SDS011;37843;53.266;6.746;2022-09-09T09:32:38;8.52;;;5.03;;
51778;SDS011;37843;53.266;6.746;2022-09-09T09:35:12;6.72;;;4.80;;
51778;SDS011;37843;53.266;6.746;2022-09-09T09:37:39;7.57;;;5.05;;
51778;SDS011;37843;53.266;6.746;2022-09-09T09:40:13;5.57;;;4.68;;
51778;SDS011;37843;53.266;6.746;2022-09-09T09:42:57;6.07;;;4.70;;
51778;SDS011;37843;53.266;6.746;2022-09-09T09:45:31;6.25;;;4.65;;
51778;SDS011;37843;53.266;6.746;2022-09-09T09:47:59;5.70;;;4.38;;
51778;SDS011;37843;53.266;6.746;2022-09-09T09:50:25;7.68;;;3.88;;
51778;SDS011;37843;53.266;6.746;2022-09-09T09:52:59;7.55;;;4.43;;
51778;SDS011;37843;53.266;6.746;2022-09-09T09:55:26;8.10;;;3.90;;
51778;SDS011;37843;53.266;6.746;2022-09-09T09:58:00;5.50;;;3.58;;
51778;SDS011;37843;53.266;6.746;2022-09-09T10:00:28;7.10;;;3.70;;
51778;SDS011;37843;53.266;6.746;2022-09-09T10:02:54;6.85;;;3.40;;
51778;SDS011;37843;53.266;6.746;2022-09-09T10:05:26;9.90;;;3.58;;
51778;SDS011;37843;53.266;6.746;2022-09-09T10:10:50;7.63;;;4.30;;
51778;SDS011;37843;53.266;6.746;2022-09-09T10:18:22;5.38;;;3.70;;
51778;SDS011;37843;53.266;6.746;2022-09-09T10:20:54;6.97;;;3.72;;
51778;SDS011;37843;53.266;6.746;2022-09-09T10:26:09;7.25;;;3.58;;
51778;SDS011;37843;53.266;6.746;2022-09-09T10:36:25;7.90;;;3.17;;
51778;SDS011;37843;53.266;6.746;2022-09-09T10:39:06;7.53;;;3.13;;
51778;SDS011;37843;53.266;6.746;2022-09-09T10:52:01;7.80;;;2.90;;
51778;SDS011;37843;53.266;6.746;2022-09-09T10:57:02;7.53;;;2.55;;
51778;SDS011;37843;53.266;6.746;2022-09-09T10:59:33;4.47;;;2.60;;
51778;SDS011;37843;53.266;6.746;2022-09-09T11:02:03;8.20;;;3.25;;
51778;SDS011;37843;53.266;6.746;2022-09-09T11:04:37;9.98;;;2.85;;
51778;SDS011;37843;53.266;6.746;2022-09-09T11:07:08;6.43;;;2.78;;
51778;SDS011;37843;53.266;6.746;2022-09-09T11:09:41;5.35;;;2.80;;
51778;SDS011;37843;53.266;6.746;2022-09-09T11:12:10;7.55;;;2.55;;
51778;SDS011;37843;53.266;6.746;2022-09-09T11:14:41;7.05;;;2.03;;
51778;SDS011;37843;53.266;6.746;2022-09-09T11:17:12;5.10;;;1.80;;
51778;SDS011;37843;53.266;6.746;2022-09-09T11:19:40;3.03;;;1.83;;
51778;SDS011;37843;53.266;6.746;2022-09-09T11:22:30;3.35;;;1.90;;
51778;SDS011;37843;53.266;6.746;2022-09-09T11:25:10;3.80;;;1.90;;
51778;SDS011;37843;53.266;6.746;2022-09-09T11:30:14;5.72;;;1.83;;
51778;SDS011;37843;53.266;6.746;2022-09-09T11:37:57;6.95;;;2.20;;
51778;SDS011;37843;53.266;6.746;2022-09-09T11:40:27;5.63;;;2.03;;
51778;SDS011;37843;53.266;6.746;2022-09-09T11:45:40;4.85;;;1.77;;
51778;SDS011;37843;53.266;6.746;2022-09-09T11:48:22;8.30;;;2.40;;
51778;SDS011;37843;53.266;6.746;2022-09-09T11:50:57;4.93;;;1.95;;
51778;SDS011;37843;53.266;6.746;2022-09-09T11:53:23;5.13;;;2.00;;
51778;SDS011;37843;53.266;6.746;2022-09-09T11:56:06;3.78;;;1.58;;
51778;SDS011;37843;53.266;6.746;2022-09-09T11:58:37;4.20;;;2.05;;
51778;SDS011;37843;53.266;6.746;2022-09-09T12:03:49;9.13;;;2.20;;
51778;SDS011;37843;53.266;6.746;2022-09-09T12:06:33;4.47;;;1.58;;
51778;SDS011;37843;53.266;6.746;2022-09-09T12:09:08;6.88;;;2.20;;
51778;SDS011;37843;53.266;6.746;2022-09-09T12:11:36;5.47;;;1.90;;
51778;SDS011;37843;53.266;6.746;2022-09-09T12:14:03;5.00;;;2.00;;
51778;SDS011;37843;53.266;6.746;2022-09-09T12:16:33;3.90;;;1.98;;
51778;SDS011;37843;53.266;6.746;2022-09-09T12:19:20;5.22;;;2.25;;
51778;SDS011;37843;53.266;6.746;2022-09-09T12:24:13;5.63;;;2.03;;
51778;SDS011;37843;53.266;6.746;2022-09-09T12:26:43;4.15;;;1.90;;
51778;SDS011;37843;53.266;6.746;2022-09-09T12:29:18;7.18;;;2.38;;
51778;SDS011;37843;53.266;6.746;2022-09-09T12:37:00;2.88;;;1.38;;
51778;SDS011;37843;53.266;6.746;2022-09-09T12:39:30;3.92;;;2.20;;
51778;SDS011;37843;53.266;6.746;2022-09-09T12:41:58;4.65;;;1.92;;
51778;SDS011;37843;53.266;6.746;2022-09-09T12:44:25;7.60;;;2.03;;
51778;SDS011;37843;53.266;6.746;2022-09-09T12:46:55;4.10;;;2.05;;
51778;SDS011;37843;53.266;6.746;2022-09-09T12:51:48;4.72;;;2.05;;
51778;SDS011;37843;53.266;6.746;2022-09-09T12:54:14;3.92;;;1.70;;
51778;SDS011;37843;53.266;6.746;2022-09-09T12:56:45;5.45;;;2.33;;
51778;SDS011;37843;53.266;6.746;2022-09-09T12:59:22;3.95;;;1.80;;
51778;SDS011;37843;53.266;6.746;2022-09-09T13:01:55;4.22;;;1.75;;
51778;SDS011;37843;53.266;6.746;2022-09-09T13:04:21;5.57;;;1.92;;
51778;SDS011;37843;53.266;6.746;2022-09-09T13:06:50;5.85;;;1.95;;
51778;SDS011;37843;53.266;6.746;2022-09-09T13:09:20;3.28;;;1.70;;
51778;SDS011;37843;53.266;6.746;2022-09-09T13:11:50;7.88;;;2.10;;
51778;SDS011;37843;53.266;6.746;2022-09-09T13:14:28;6.57;;;1.80;;
51778;SDS011;37843;53.266;6.746;2022-09-09T13:16:59;5.05;;;2.00;;
51778;SDS011;37843;53.266;6.746;2022-09-09T13:19:26;6.30;;;1.98;;
51778;SDS011;37843;53.266;6.746;2022-09-09T13:21:56;6.15;;;2.10;;
51778;SDS011;37843;53.266;6.746;2022-09-09T13:24:33;6.47;;;2.08;;
51778;SDS011;37843;53.266;6.746;2022-09-09T13:27:01;4.97;;;1.90;;
51778;SDS011;37843;53.266;6.746;2022-09-09T13:29:29;5.25;;;2.42;;
51778;SDS011;37843;53.266;6.746;2022-09-09T13:32:38;3.35;;;1.70;;
51778;SDS011;37843;53.266;6.746;2022-09-09T13:34:52;2.67;;;1.67;;
51778;SDS011;37843;53.266;6.746;2022-09-09T13:37:24;3.65;;;1.75;;
51778;SDS011;37843;53.266;6.746;2022-09-09T13:39:53;4.65;;;1.50;;
51778;SDS011;37843;53.266;6.746;2022-09-09T13:42:27;4.63;;;1.65;;
51778;SDS011;37843;53.266;6.746;2022-09-09T13:44:54;3.88;;;1.60;;
51778;SDS011;37843;53.266;6.746;2022-09-09T13:47:22;5.93;;;1.80;;
51778;SDS011;37843;53.266;6.746;2022-09-09T13:49:52;3.70;;;1.83;;
51778;SDS011;37843;53.266;6.746;2022-09-09T13:52:19;4.95;;;1.95;;
51778;SDS011;37843;53.266;6.746;2022-09-09T13:54:51;4.75;;;1.80;;
51778;SDS011;37843;53.266;6.746;2022-09-09T13:57:18;4.82;;;1.85;;
51778;SDS011;37843;53.266;6.746;2022-09-09T13:59:48;3.25;;;2.00;;
51778;SDS011;37843;53.266;6.746;2022-09-09T14:02:17;5.45;;;1.90;;
51778;SDS011;37843;53.266;6.746;2022-09-09T14:04:46;3.40;;;1.40;;
51778;SDS011;37843;53.266;6.746;2022-09-09T14:07:16;5.65;;;1.85;;
51778;SDS011;37843;53.266;6.746;2022-09-09T14:09:43;2.60;;;1.40;;
51778;SDS011;37843;53.266;6.746;2022-09-09T14:12:13;6.97;;;1.88;;
51778;SDS011;37843;53.266;6.746;2022-09-09T14:14:40;2.00;;;1.50;;
51778;SDS011;37843;53.266;6.746;2022-09-09T14:17:10;3.58;;;1.40;;
51778;SDS011;37843;53.266;6.746;2022-09-09T14:19:39;1.75;;;1.30;;
51778;SDS011;37843;53.266;6.746;2022-09-09T14:22:09;3.80;;;1.80;;
51778;SDS011;37843;53.266;6.746;2022-09-09T14:24:35;3.40;;;1.20;;
51778;SDS011;37843;53.266;6.746;2022-09-09T14:27:02;3.97;;;1.20;;
51778;SDS011;37843;53.266;6.746;2022-09-09T14:29:28;1.60;;;1.25;;
51778;SDS011;37843;53.266;6.746;2022-09-09T14:31:54;3.72;;;1.38;;
51778;SDS011;37843;53.266;6.746;2022-09-09T14:34:20;2.95;;;1.35;;
51778;SDS011;37843;53.266;6.746;2022-09-09T14:36:46;4.03;;;2.40;;
51778;SDS011;37843;53.266;6.746;2022-09-09T14:39:12;3.92;;;1.80;;
51778;SDS011;37843;53.266;6.746;2022-09-09T14:41:38;3.75;;;1.35;;
51778;SDS011;37843;53.266;6.746;2022-09-09T14:44:05;4.15;;;1.83;;
51778;SDS011;37843;53.266;6.746;2022-09-09T14:46:31;3.08;;;1.27;;
51778;SDS011;37843;53.266;6.746;2022-09-09T14:48:58;4.03;;;1.48;;
51778;SDS011;37843;53.266;6.746;2022-09-09T14:51:25;3.15;;;1.60;;
51778;SDS011;37843;53.266;6.746;2022-09-09T14:53:57;5.25;;;1.52;;
51778;SDS011;37843;53.266;6.746;2022-09-09T14:56:27;2.72;;;1.80;;
51778;SDS011;37843;53.266;6.746;2022-09-09T14:58:54;2.67;;;1.50;;
51778;SDS011;37843;53.266;6.746;2022-09-09T15:01:21;5.68;;;1.73;;
51778;SDS011;37843;53.266;6.746;2022-09-09T15:03:51;3.78;;;1.90;;
51778;SDS011;37843;53.266;6.746;2022-09-09T15:06:18;5.20;;;2.10;;
51778;SDS011;37843;53.266;6.746;2022-09-09T15:08:45;2.40;;;1.27;;
51778;SDS011;37843;53.266;6.746;2022-09-09T15:11:15;3.70;;;1.50;;
51778;SDS011;37843;53.266;6.746;2022-09-09T15:13:42;4.10;;;2.03;;
51778;SDS011;37843;53.266;6.746;2022-09-09T15:16:09;5.90;;;1.88;;
51778;SDS011;37843;53.266;6.746;2022-09-09T15:18:36;3.22;;;1.95;;
51778;SDS011;37843;53.266;6.746;2022-09-09T15:21:05;4.45;;;1.73;;
51778;SDS011;37843;53.266;6.746;2022-09-09T15:23:31;3.40;;;2.10;;
51778;SDS011;37843;53.266;6.746;2022-09-09T15:25:58;5.60;;;2.00;;
51778;SDS011;37843;53.266;6.746;2022-09-09T15:28:24;3.67;;;2.10;;
51778;SDS011;37843;53.266;6.746;2022-09-09T15:30:50;3.90;;;1.75;;
51778;SDS011;37843;53.266;6.746;2022-09-09T15:33:17;4.65;;;1.92;;
51778;SDS011;37843;53.266;6.746;2022-09-09T15:35:44;4.72;;;2.50;;
51778;SDS011;37843;53.266;6.746;2022-09-09T15:38:11;6.97;;;1.92;;
51778;SDS011;37843;53.266;6.746;2022-09-09T15:40:40;5.07;;;2.45;;
51778;SDS011;37843;53.266;6.746;2022-09-09T15:43:07;10.63;;;2.90;;
51778;SDS011;37843;53.266;6.746;2022-09-09T15:45:34;4.72;;;2.08;;
51778;SDS011;37843;53.266;6.746;2022-09-09T15:48:01;4.85;;;1.95;;
51778;SDS011;37843;53.266;6.746;2022-09-09T15:50:28;2.90;;;1.40;;
51778;SDS011;37843;53.266;6.746;2022-09-09T15:52:57;2.47;;;1.20;;
51778;SDS011;37843;53.266;6.746;2022-09-09T15:55:24;1.40;;;1.02;;
51778;SDS011;37843;53.266;6.746;2022-09-09T15:57:50;1.60;;;0.60;;
51778;SDS011;37843;53.266;6.746;2022-09-09T16:00:20;3.35;;;0.95;;
51778;SDS011;37843;53.266;6.746;2022-09-09T16:02:47;3.58;;;1.00;;
51778;SDS011;37843;53.266;6.746;2022-09-09T16:05:13;1.55;;;0.80;;
51778;SDS011;37843;53.266;6.746;2022-09-09T16:07:39;1.13;;;0.73;;
51778;SDS011;37843;53.266;6.746;2022-09-09T16:10:07;1.35;;;0.93;;
51778;SDS011;37843;53.266;6.746;2022-09-09T16:12:33;2.08;;;0.75;;
51778;SDS011;37843;53.266;6.746;2022-09-09T16:14:59;1.92;;;1.17;;
51778;SDS011;37843;53.266;6.746;2022-09-09T16:17:26;3.13;;;1.23;;
51778;SDS011;37843;53.266;6.746;2022-09-09T16:19:52;2.15;;;0.98;;
51778;SDS011;37843;53.266;6.746;2022-09-09T16:22:19;2.97;;;1.00;;
51778;SDS011;37843;53.266;6.746;2022-09-09T16:24:45;3.63;;;0.98;;
51778;SDS011;37843;53.266;6.746;2022-09-09T16:27:11;2.05;;;0.90;;
51778;SDS011;37843;53.266;6.746;2022-09-09T16:29:39;2.80;;;0.82;;
51778;SDS011;37843;53.266;6.746;2022-09-09T16:32:05;1.90;;;0.82;;
51778;SDS011;37843;53.266;6.746;2022-09-09T16:34:31;1.35;;;1.10;;